createdAt,value
2022-10-23T00:00:05.852Z,99090.38
2022-10-23T00:03:08.866Z,99080.91
2022-10-23T00:06:11.384Z,99077.22
2022-10-23T00:09:16.934Z,99080.72
2022-10-23T00:12:18.949Z,99052.94
2022-10-23T00:15:22.573Z,99068.03
2022-10-23T00:18:24.167Z,99055.41
2022-10-23T00:21:26.468Z,99066.88
2022-10-23T00:24:28.101Z,99053.72
2022-10-23T00:27:29.752Z,99054.84
2022-10-23T00:30:31.445Z,99046.34
2022-10-23T00:33:33.403Z,99057.16
2022-10-23T00:36:35.529Z,99058.44
2022-10-23T00:39:37.177Z,99060.75
2022-10-23T00:42:38.919Z,99063.72
2022-10-23T00:45:40.946Z,99064.59
2022-10-23T00:48:42.544Z,99052.00
2022-10-23T00:51:51.252Z,99044.53
2022-10-23T00:54:52.950Z,99039.72
2022-10-23T00:57:54.986Z,99052.78
2022-10-23T01:00:57.066Z,99050.66
2022-10-23T01:03:58.966Z,99026.41
2022-10-23T01:07:20.349Z,99049.69
2022-10-23T01:10:45.084Z,99057.97
2022-10-23T01:17:19.744Z,99041.66
2022-10-23T01:20:39.248Z,99037.16
2022-10-23T01:24:00.515Z,99048.31
2022-10-23T01:27:14.905Z,99042.34
2022-10-23T01:30:18.007Z,99040.94
2022-10-23T01:33:34.035Z,99036.91
2022-10-23T01:36:39.689Z,99042.34
2022-10-23T01:39:47.667Z,99022.00
2022-10-23T01:42:55.030Z,99032.28
2022-10-23T01:46:05.697Z,99020.09
2022-10-23T01:49:14.650Z,99032.28
2022-10-23T01:52:19.991Z,99022.38
2022-10-23T01:55:25.339Z,99015.50
2022-10-23T01:58:29.729Z,99003.69
2022-10-23T02:01:33.261Z,98982.44
2022-10-23T02:04:40.743Z,98981.56
2022-10-23T02:07:43.255Z,98978.25
2022-10-23T02:10:53.866Z,98978.81
2022-10-23T02:14:24.346Z,98989.56
2022-10-23T02:17:55.224Z,98982.75
2022-10-23T02:21:12.168Z,98980.28
2022-10-23T02:24:18.245Z,98982.84
2022-10-23T02:27:39.962Z,98991.16
2022-10-23T02:30:46.104Z,98983.66
2022-10-23T02:33:48.214Z,98984.53
2022-10-23T02:36:50.040Z,98986.69
2022-10-23T02:39:55.042Z,98986.59
2022-10-23T02:43:32.279Z,98988.28
2022-10-23T02:46:52.859Z,98984.75
2022-10-23T02:50:28.430Z,98970.38
2022-10-23T02:53:36.609Z,98966.63
2022-10-23T02:57:04.025Z,98951.03
2022-10-23T03:00:08.499Z,98947.44
2022-10-23T03:03:14.784Z,98952.97
2022-10-23T03:06:16.979Z,98947.28
2022-10-23T03:09:18.779Z,98939.22
2022-10-23T03:12:20.474Z,98932.38
2022-10-23T03:15:22.402Z,98926.50
2022-10-23T03:18:25.690Z,98930.72
2022-10-23T03:21:27.475Z,98934.31
2022-10-23T03:24:29.137Z,98930.56
2022-10-23T03:27:31.945Z,98941.78
2022-10-23T03:30:37.696Z,98940.44
2022-10-23T03:33:39.981Z,98948.50
2022-10-23T03:36:46.735Z,98942.66
2022-10-23T03:39:49.422Z,98946.94
2022-10-23T03:42:51.184Z,98946.47
2022-10-23T03:45:56.323Z,98934.22
2022-10-23T03:49:00.531Z,98938.59
2022-10-23T03:52:02.296Z,98947.03
2022-10-23T03:55:04.527Z,98949.41
2022-10-23T03:58:06.341Z,98946.16
2022-10-23T04:01:08.145Z,98935.03
2022-10-23T04:04:11.967Z,98943.69
2022-10-23T04:07:16.574Z,98935.69
2022-10-23T04:10:18.300Z,98945.63
2022-10-23T04:13:19.964Z,98938.25
2022-10-23T04:16:22.250Z,98913.63
2022-10-23T04:19:24.070Z,98926.13
2022-10-23T04:22:28.292Z,98929.03
2022-10-23T04:25:30.332Z,98920.75
2022-10-23T04:28:31.972Z,98925.47
2022-10-23T04:31:34.550Z,98932.00
2022-10-23T04:34:36.338Z,98919.88
2022-10-23T04:37:38.788Z,98914.66
2022-10-23T04:40:41.815Z,98907.13
2022-10-23T04:43:43.566Z,98902.81
2022-10-23T04:46:48.952Z,98906.25
2022-10-23T04:49:50.994Z,98896.88
2022-10-23T04:52:57.864Z,98906.19
2022-10-23T04:56:00.232Z,98906.53
2022-10-23T04:59:12.043Z,98906.88
2022-10-23T05:02:14.969Z,98900.31
2022-10-23T05:05:17.619Z,98897.13
2022-10-23T05:08:31.610Z,98874.84
2022-10-23T05:11:48.977Z,98880.78
2022-10-23T05:14:50.952Z,98884.44
2022-10-23T05:17:57.952Z,98884.03
2022-10-23T05:21:05.364Z,98882.91
2022-10-23T05:24:07.497Z,98889.16
2022-10-23T05:27:09.817Z,98886.44
2022-10-23T05:30:14.974Z,98881.50
2022-10-23T05:33:17.508Z,98898.88
2022-10-23T05:36:19.436Z,98893.34
2022-10-23T05:39:25.020Z,98894.38
2022-10-23T05:42:27.968Z,98882.22
2022-10-23T05:45:32.151Z,98889.56
2022-10-23T05:48:56.863Z,98900.16
2022-10-23T05:52:20.381Z,98887.03
2022-10-23T05:55:41.203Z,98899.94
2022-10-23T05:58:51.569Z,98901.00
2022-10-23T06:02:11.731Z,98890.38
2022-10-23T06:05:24.567Z,98884.72
2022-10-23T06:08:45.051Z,98884.53
2022-10-23T06:11:47.657Z,98888.72
2022-10-23T06:14:54.773Z,98887.81
2022-10-23T06:18:04.959Z,98878.44
2022-10-23T06:21:10.508Z,98887.22
2022-10-23T06:24:12.222Z,98883.53
2022-10-23T06:27:36.690Z,98879.75
2022-10-23T06:30:40.263Z,98892.47
2022-10-23T06:33:42.486Z,98870.38
2022-10-23T06:36:45.183Z,98885.19
2022-10-23T06:40:10.609Z,98880.47
2022-10-23T06:43:30.214Z,98884.72
2022-10-23T06:46:51.601Z,98870.50
2022-10-23T06:50:22.550Z,98869.44
2022-10-23T06:53:24.933Z,98859.91
2022-10-23T06:56:35.259Z,98860.19
2022-10-23T06:59:40.525Z,98862.72
2022-10-23T07:02:43.893Z,98888.13
2022-10-23T07:05:47.367Z,98884.75
2022-10-23T07:08:49.998Z,98890.25
2022-10-23T07:12:17.739Z,98887.81
2022-10-23T07:15:26.596Z,98865.81
2022-10-23T07:18:28.926Z,98866.19
2022-10-23T07:22:02.792Z,98858.44
2022-10-23T07:25:30.665Z,98858.50
2022-10-23T07:28:35.592Z,98853.34
2022-10-23T07:31:37.846Z,98857.59
2022-10-23T07:34:58.351Z,98870.97
2022-10-23T07:38:06.180Z,98880.38
2022-10-23T07:41:12.599Z,98892.75
2022-10-23T07:44:15.550Z,98896.28
2022-10-23T07:47:17.816Z,98888.69
2022-10-23T07:50:23.813Z,98901.31
2022-10-23T07:53:25.732Z,98893.78
2022-10-23T07:56:32.698Z,98910.47
2022-10-23T07:59:50.883Z,98914.03
2022-10-23T08:02:56.069Z,98903.78
2022-10-23T08:06:00.263Z,98881.31
2022-10-23T08:09:06.268Z,98889.78
2022-10-23T08:12:10.624Z,98881.50
2022-10-23T08:15:13.151Z,98881.31
2022-10-23T08:18:26.985Z,98884.13
2022-10-23T08:21:31.464Z,98877.88
2022-10-23T08:24:33.201Z,98876.22
2022-10-23T08:27:34.904Z,98875.28
2022-10-23T08:30:37.505Z,98863.75
2022-10-23T08:33:39.742Z,98865.09
2022-10-23T08:36:42.310Z,98872.22
2022-10-23T08:39:44.096Z,98869.56
2022-10-23T08:43:01.299Z,98841.63
2022-10-23T08:46:09.561Z,98841.00
2022-10-23T08:49:54.693Z,98840.72
2022-10-23T08:53:07.031Z,98830.97
2022-10-23T08:56:22.864Z,98821.22
2022-10-23T08:59:33.264Z,98817.34
2022-10-23T09:02:55.253Z,98815.13
2022-10-23T09:06:11.999Z,98811.22
2022-10-23T09:09:52.846Z,98826.13
2022-10-23T09:13:01.743Z,98816.72
2022-10-23T09:16:14.466Z,98834.78
2022-10-23T09:19:27.255Z,98831.25
2022-10-23T09:22:29.253Z,98826.16
2022-10-23T09:25:37.118Z,98829.28
2022-10-23T09:28:46.338Z,98835.44
2022-10-23T09:31:53.253Z,98833.28
2022-10-23T09:34:55.592Z,98824.41
2022-10-23T09:37:58.181Z,98821.34
2022-10-23T09:41:13.303Z,98813.56
2022-10-23T09:44:30.619Z,98819.09
2022-10-23T09:47:32.780Z,98802.66
2022-10-23T09:50:34.433Z,98788.59
2022-10-23T09:53:48.142Z,98783.47
2022-10-23T09:56:50.216Z,98778.38
2022-10-23T09:59:54.495Z,98771.34
2022-10-23T10:03:03.307Z,98776.81
2022-10-23T10:06:32.458Z,98792.09
2022-10-23T10:09:34.440Z,98799.53
2022-10-23T10:12:37.761Z,98805.00
2022-10-23T10:15:55.552Z,98802.69
2022-10-23T10:19:11.379Z,98797.94
2022-10-23T10:22:31.998Z,98786.63
2022-10-23T10:25:51.293Z,98799.13
2022-10-23T10:30:04.954Z,98794.06
2022-10-23T10:33:41.987Z,98805.38
2022-10-23T10:36:46.622Z,98797.97
2022-10-23T10:39:57.550Z,98794.03
2022-10-23T10:43:28.588Z,98793.69
2022-10-23T10:46:33.143Z,98788.56
2022-10-23T10:49:55.483Z,98786.97
2022-10-23T10:53:17.495Z,98771.75
2022-10-23T10:56:22.567Z,98765.84
2022-10-23T10:59:29.537Z,98766.25
2022-10-23T11:02:49.756Z,98764.28
2022-10-23T11:05:53.574Z,98754.38
2022-10-23T11:09:03.975Z,98739.44
2022-10-23T11:12:26.730Z,98740.53
2022-10-23T11:15:37.026Z,98740.19
2022-10-23T11:18:46.476Z,98735.88
2022-10-23T11:22:03.217Z,98732.38
2022-10-23T11:25:20.497Z,98735.53
2022-10-23T11:28:43.742Z,98720.00
2022-10-23T11:32:08.740Z,98731.31
2022-10-23T11:35:48.068Z,98735.19
2022-10-23T11:38:51.122Z,98725.75
2022-10-23T11:42:20.894Z,98722.63
2022-10-23T11:45:36.494Z,98736.81
2022-10-23T11:48:41.167Z,98722.69
2022-10-23T11:51:42.838Z,98727.84
2022-10-23T11:54:44.439Z,98720.81
2022-10-23T11:58:08.138Z,98711.38
2022-10-23T12:01:42.730Z,98702.72
2022-10-23T12:04:51.920Z,98701.50
2022-10-23T12:08:00.079Z,98701.38
2022-10-23T12:11:01.915Z,98696.63
2022-10-23T12:14:03.594Z,98700.59
2022-10-23T12:17:23.742Z,98693.81
2022-10-23T12:20:38.202Z,98675.28
2022-10-23T12:24:03.661Z,98677.91
2022-10-23T12:27:20.294Z,98654.38
2022-10-23T12:30:34.187Z,98640.47
2022-10-23T12:33:46.876Z,98645.59
2022-10-23T12:37:22.522Z,98636.16
2022-10-23T12:40:29.862Z,98614.34
2022-10-23T12:43:34.499Z,98608.53
2022-10-23T12:46:40.416Z,98606.72
2022-10-23T12:49:49.382Z,98597.78
2022-10-23T12:53:03.117Z,98593.66
2022-10-23T12:56:06.761Z,98595.25
2022-10-23T12:59:16.586Z,98601.88
2022-10-23T13:02:29.204Z,98599.81
2022-10-23T13:05:32.298Z,98591.63
2022-10-23T13:08:40.317Z,98584.50
2022-10-23T13:12:29.205Z,98582.16
2022-10-23T13:15:39.112Z,98585.47
2022-10-23T13:18:41.960Z,98583.81
2022-10-23T13:21:46.518Z,98581.81
2022-10-23T13:24:48.456Z,98569.38
2022-10-23T13:27:50.368Z,98561.94
2022-10-23T13:31:24.866Z,98561.81
2022-10-23T13:34:29.168Z,98548.28
2022-10-23T13:37:32.018Z,98546.25
2022-10-23T13:40:33.825Z,98535.72
2022-10-23T13:43:35.451Z,98537.50
2022-10-23T13:46:37.090Z,98531.47
2022-10-23T13:49:38.783Z,98548.22
2022-10-23T13:52:40.389Z,98544.38
2022-10-23T13:55:44.613Z,98553.94
2022-10-23T13:58:46.662Z,98551.97
2022-10-23T14:01:49.795Z,98545.19
2022-10-23T14:04:52.442Z,98545.66
2022-10-23T14:07:54.065Z,98554.41
2022-10-23T14:10:55.729Z,98562.03
2022-10-23T14:13:57.428Z,98568.84
2022-10-23T14:16:59.123Z,98568.50
2022-10-23T14:20:02.170Z,98581.41
2022-10-23T14:23:05.673Z,98582.63
2022-10-23T14:26:10.280Z,98596.22
2022-10-23T14:29:22.947Z,98597.25
2022-10-23T14:32:25.650Z,98594.34
2022-10-23T14:35:27.325Z,98596.47
2022-10-23T14:38:29.486Z,98591.81
2022-10-23T14:41:31.138Z,98571.47
2022-10-23T14:44:32.973Z,98563.69
2022-10-23T14:47:34.683Z,98537.47
2022-10-23T14:50:42.246Z,98528.69
2022-10-23T14:53:43.931Z,98536.63
2022-10-23T14:56:45.585Z,98551.31
2022-10-23T14:59:48.395Z,98554.31
2022-10-23T15:02:50.061Z,98559.84
2022-10-23T15:05:52.157Z,98555.09
2022-10-23T15:08:57.227Z,98541.00
2022-10-23T15:11:58.868Z,98525.34
2022-10-23T15:15:00.529Z,98532.53
2022-10-23T15:18:02.146Z,98511.81
2022-10-23T15:21:08.620Z,98510.16
2022-10-23T15:24:10.299Z,98508.63
2022-10-23T15:27:11.954Z,98513.28
2022-10-23T15:30:13.730Z,98499.25
2022-10-23T15:33:19.175Z,98501.63
2022-10-23T15:36:21.668Z,98477.81
2022-10-23T15:39:29.122Z,98470.09
2022-10-23T15:42:30.863Z,98459.19
2022-10-23T15:45:32.954Z,98443.53
2022-10-23T15:48:34.565Z,98459.25
2022-10-23T15:51:37.147Z,98453.78
2022-10-23T15:54:38.816Z,98467.47
2022-10-23T15:57:41.112Z,98462.81
2022-10-23T16:00:42.781Z,98462.81
2022-10-23T16:03:44.815Z,98472.59
2022-10-23T16:06:47.181Z,98481.19
2022-10-23T16:09:48.978Z,98495.66
2022-10-23T16:12:51.165Z,98508.56
2022-10-23T16:15:54.105Z,98501.53
2022-10-23T16:18:58.261Z,98500.34
2022-10-23T16:21:59.896Z,98507.75
2022-10-23T16:25:01.701Z,98490.59
2022-10-23T16:28:04.045Z,98496.75
2022-10-23T16:31:19.981Z,98507.69
2022-10-23T16:34:22.763Z,98500.94
2022-10-23T16:37:24.485Z,98501.63
2022-10-23T16:40:30.819Z,98501.69
2022-10-23T16:43:50.827Z,98498.97
2022-10-23T16:47:11.150Z,98504.78
2022-10-23T16:50:12.825Z,98504.38
2022-10-23T16:53:14.416Z,98502.22
2022-10-23T16:56:18.971Z,98510.84
2022-10-23T16:59:20.742Z,98496.69
2022-10-23T17:02:22.540Z,98499.44
2022-10-23T17:05:24.490Z,98506.19
2022-10-23T17:08:26.095Z,98530.28
2022-10-23T17:11:30.828Z,98558.84
2022-10-23T17:14:32.643Z,98562.97
2022-10-23T17:17:34.250Z,98574.41
2022-10-23T17:20:35.897Z,98589.88
2022-10-23T17:23:37.530Z,98609.13
2022-10-23T17:26:40.922Z,98623.47
2022-10-23T17:29:42.507Z,98640.91
2022-10-23T17:32:44.409Z,98643.94
2022-10-23T17:35:46.459Z,98646.19
2022-10-23T17:38:48.303Z,98674.56
2022-10-23T17:41:50.274Z,98688.13
2022-10-23T17:44:51.890Z,98715.72
2022-10-23T17:47:53.679Z,98716.28
2022-10-23T17:51:04.050Z,98704.22
2022-10-23T17:54:08.477Z,98710.53
2022-10-23T17:57:10.300Z,98696.50
2022-10-23T18:00:12.426Z,98675.00
2022-10-23T18:03:17.737Z,98653.06
2022-10-23T18:06:29.582Z,98654.25
2022-10-23T18:09:31.561Z,98662.09
2022-10-23T18:12:33.386Z,98647.59
2022-10-23T18:15:35.883Z,98643.78
2022-10-23T18:18:39.187Z,98663.38
2022-10-23T18:21:41.101Z,98676.28
2022-10-23T18:24:42.822Z,98662.19
2022-10-23T18:27:44.864Z,98674.31
2022-10-23T18:30:48.127Z,98678.22
2022-10-23T18:33:50.160Z,98662.97
2022-10-23T18:36:53.853Z,98673.94
2022-10-23T18:39:55.529Z,98678.22
2022-10-23T18:42:57.261Z,98672.75
2022-10-23T18:45:58.913Z,98675.88
2022-10-23T18:49:00.908Z,98661.81
2022-10-23T18:52:03.392Z,98661.41
2022-10-23T18:55:07.521Z,98648.50
2022-10-23T18:58:09.241Z,98667.69
2022-10-23T19:01:11.073Z,98649.31
2022-10-23T19:04:15.877Z,98647.66
2022-10-23T19:07:17.978Z,98639.03
2022-10-23T19:10:21.884Z,98634.28
2022-10-23T19:13:23.583Z,98615.56
2022-10-23T19:16:33.593Z,98607.00
2022-10-23T19:19:43.534Z,98596.75
2022-10-23T19:22:48.573Z,98603.75
2022-10-23T19:25:50.363Z,98591.53
2022-10-23T19:31:54.926Z,98606.06
2022-10-23T19:34:56.694Z,98588.31
2022-10-23T19:37:58.405Z,98591.78
2022-10-23T19:41:00.032Z,98585.72
2022-10-23T19:44:02.036Z,98603.28
2022-10-23T19:47:04.149Z,98598.47
2022-10-23T19:50:06.965Z,98594.44
2022-10-23T19:53:08.817Z,98606.69
2022-10-23T19:56:11.881Z,98605.03
2022-10-23T19:59:13.762Z,98600.56
2022-10-23T20:02:15.946Z,98608.25
2022-10-23T20:05:18.219Z,98626.09
2022-10-23T20:08:20.010Z,98604.16
2022-10-23T20:11:30.620Z,98614.59
2022-10-23T20:14:32.749Z,98601.97
2022-10-23T20:17:34.478Z,98630.75
2022-10-23T20:20:41.275Z,98595.53
2022-10-23T20:23:44.086Z,98627.84
2022-10-23T20:26:51.299Z,98636.19
2022-10-23T20:29:53.045Z,98638.22
2022-10-23T20:32:54.722Z,98641.41
2022-10-23T20:39:07.009Z,98632.34
2022-10-23T20:42:08.736Z,98635.25
2022-10-23T20:45:10.783Z,98636.13
2022-10-23T20:48:12.489Z,98635.19
2022-10-23T20:51:16.761Z,98643.97
2022-10-23T20:54:18.424Z,98644.78
2022-10-23T20:57:21.317Z,98650.41
2022-10-23T21:00:23.421Z,98660.72
2022-10-23T21:03:25.123Z,98666.84
2022-10-23T21:06:33.967Z,98676.09
2022-10-23T21:09:42.638Z,98669.50
2022-10-23T21:12:44.501Z,98686.22
2022-10-23T21:15:46.301Z,98681.03
2022-10-23T21:18:48.365Z,98666.16
2022-10-23T21:21:50.106Z,98687.06
2022-10-23T21:24:51.742Z,98687.34
2022-10-23T21:27:53.345Z,98662.28
2022-10-23T21:30:55.044Z,98670.59
2022-10-23T21:33:56.672Z,98676.34
2022-10-23T21:37:14.679Z,98663.53
2022-10-23T21:40:16.787Z,98659.94
2022-10-23T21:43:18.613Z,98650.06
2022-10-23T21:46:21.052Z,98659.94
2022-10-23T21:49:22.676Z,98641.06
2022-10-23T21:52:24.301Z,98643.25
2022-10-23T21:55:27.874Z,98647.22
2022-10-23T21:58:29.578Z,98634.59
2022-10-23T22:01:31.290Z,98641.50
2022-10-23T22:04:33.140Z,98637.44
2022-10-23T22:07:34.901Z,98639.47
2022-10-23T22:10:36.661Z,98644.03
2022-10-23T22:13:38.341Z,98634.81
2022-10-23T22:16:42.065Z,98628.31
2022-10-23T22:19:43.956Z,98630.16
2022-10-23T22:22:45.597Z,98620.94
2022-10-23T22:25:47.309Z,98627.56
2022-10-23T22:28:50.282Z,98627.72
2022-10-23T22:31:52.612Z,98640.91
2022-10-23T22:34:54.307Z,98630.81
2022-10-23T22:37:55.908Z,98623.53
2022-10-23T22:41:00.133Z,98621.75
2022-10-23T22:44:01.826Z,98649.03
2022-10-23T22:47:03.712Z,98654.66
2022-10-23T22:50:05.870Z,98645.28
2022-10-23T22:53:07.541Z,98646.47
2022-10-23T22:56:15.438Z,98658.69
2022-10-23T22:59:17.204Z,98654.97
2022-10-23T23:02:18.986Z,98645.66
2022-10-23T23:05:20.721Z,98653.84
2022-10-23T23:08:22.442Z,98638.53
2022-10-23T23:11:24.161Z,98642.84
2022-10-23T23:14:25.776Z,98653.41
2022-10-23T23:17:27.464Z,98650.88
2022-10-23T23:20:29.125Z,98655.88
2022-10-23T23:23:31.054Z,98653.44
2022-10-23T23:26:32.750Z,98652.38
2022-10-23T23:29:34.442Z,98656.44
2022-10-23T23:32:36.350Z,98648.38
2022-10-23T23:35:43.111Z,98660.41
2022-10-23T23:38:44.758Z,98652.97
2022-10-23T23:41:46.398Z,98656.06
2022-10-23T23:44:56.011Z,98662.59
2022-10-23T23:48:09.744Z,98656.22
2022-10-23T23:51:11.362Z,98662.84
2022-10-23T23:54:13.082Z,98646.50
2022-10-23T23:57:14.736Z,98652.09
